createdAt,value
2019-02-19T00:00:20.609Z,1009.73
2019-02-19T00:01:20.597Z,1009.70
2019-02-19T00:02:20.587Z,1009.72
2019-02-19T00:03:20.576Z,1009.66
2019-02-19T00:04:20.564Z,1009.64
2019-02-19T00:05:20.552Z,1009.68
2019-02-19T00:06:20.544Z,1009.66
2019-02-19T00:07:20.538Z,1009.64
2019-02-19T00:08:20.532Z,1009.66
2019-02-19T00:09:20.515Z,1009.61
2019-02-19T00:10:20.500Z,1009.61
2019-02-19T00:11:20.485Z,1009.62
2019-02-19T00:12:20.476Z,1009.65
2019-02-19T00:13:20.462Z,1009.60
2019-02-19T00:14:20.456Z,1009.62
2019-02-19T00:15:20.445Z,1009.61
2019-02-19T00:16:20.440Z,1009.59
2019-02-19T00:17:20.420Z,1009.63
2019-02-19T00:18:20.407Z,1009.61
2019-02-19T00:19:20.400Z,1009.60
2019-02-19T00:20:20.385Z,1009.60
2019-02-19T00:21:20.375Z,1009.60
2019-02-19T00:22:20.365Z,1009.61
2019-02-19T00:23:20.354Z,1009.61
2019-02-19T00:24:20.343Z,1009.58
2019-02-19T00:25:20.336Z,1009.59
2019-02-19T00:26:20.324Z,1009.62
2019-02-19T00:27:20.308Z,1009.62
2019-02-19T00:28:20.299Z,1009.59
2019-02-19T00:29:20.288Z,1009.59
2019-02-19T00:30:20.276Z,1009.60
2019-02-19T00:31:20.267Z,1009.64
2019-02-19T00:32:20.252Z,1009.61
2019-02-19T00:33:20.246Z,1009.59
2019-02-19T00:34:20.235Z,1009.60
2019-02-19T00:35:20.220Z,1009.56
2019-02-19T00:36:20.212Z,1009.59
2019-02-19T00:37:20.195Z,1009.57
2019-02-19T00:38:20.187Z,1009.57
2019-02-19T00:39:20.178Z,1009.60
2019-02-19T00:40:20.164Z,1009.56
2019-02-19T00:41:20.153Z,1009.59
2019-02-19T00:42:20.143Z,1009.48
2019-02-19T00:43:20.133Z,1009.52
2019-02-19T00:44:20.122Z,1009.53
2019-02-19T00:45:20.109Z,1009.51
2019-02-19T00:46:20.098Z,1009.51
2019-02-19T00:47:20.088Z,1009.50
2019-02-19T00:48:20.075Z,1009.47
2019-02-19T00:49:20.066Z,1009.46
2019-02-19T00:50:20.074Z,1009.44
2019-02-19T00:51:20.045Z,1009.46
2019-02-19T00:52:20.031Z,1009.44
2019-02-19T00:53:20.019Z,1009.46
2019-02-19T00:54:20.013Z,1009.46
2019-02-19T00:55:19.996Z,1009.43
2019-02-19T00:56:19.987Z,1009.39
2019-02-19T00:57:19.979Z,1009.42
2019-02-19T00:58:19.966Z,1009.39
2019-02-19T00:59:19.956Z,1009.39
2019-02-19T01:00:19.942Z,1009.38
2019-02-19T01:01:19.933Z,1009.37
2019-02-19T01:02:19.920Z,1009.34
2019-02-19T01:03:19.926Z,1009.32
2019-02-19T01:04:19.901Z,1009.29
2019-02-19T01:05:19.889Z,1009.32
2019-02-19T01:06:19.880Z,1009.27
2019-02-19T01:07:19.866Z,1009.31
2019-02-19T01:08:19.856Z,1009.27
2019-02-19T01:09:19.844Z,1009.25
2019-02-19T01:10:19.832Z,1009.28
2019-02-19T01:11:19.825Z,1009.26
2019-02-19T01:12:19.811Z,1009.25
2019-02-19T01:13:19.800Z,1009.23
2019-02-19T01:14:19.792Z,1009.24
2019-02-19T01:15:25.225Z,1009.18
2019-02-19T01:16:20.772Z,1009.20
2019-02-19T01:17:19.758Z,1009.20
2019-02-19T01:18:39.361Z,1009.18
2019-02-19T01:20:01.283Z,1009.19
2019-02-19T01:21:01.262Z,1009.19
2019-02-19T01:22:01.254Z,1009.15
2019-02-19T01:23:01.238Z,1009.21
2019-02-19T01:24:01.231Z,1009.11
2019-02-19T01:25:01.219Z,1009.11
2019-02-19T01:26:01.203Z,1009.13
2019-02-19T01:27:01.195Z,1009.05
2019-02-19T01:28:01.183Z,1009.08
2019-02-19T01:29:01.174Z,1009.04
2019-02-19T01:30:01.163Z,1009.08
2019-02-19T01:31:01.148Z,1009.07
2019-02-19T01:32:01.138Z,1009.09
2019-02-19T01:33:01.127Z,1009.07
2019-02-19T01:34:01.118Z,1009.09
2019-02-19T01:35:01.105Z,1009.08
2019-02-19T01:36:01.094Z,1009.05
2019-02-19T01:37:01.084Z,1009.04
2019-02-19T01:38:01.076Z,1009.00
2019-02-19T01:39:01.062Z,1008.98
2019-02-19T01:40:01.053Z,1008.99
2019-02-19T01:41:01.038Z,1008.95
2019-02-19T01:42:01.028Z,1008.96
2019-02-19T01:43:01.019Z,1008.93
2019-02-19T01:44:01.013Z,1008.92
2019-02-19T01:45:00.994Z,1008.90
2019-02-19T01:46:00.982Z,1008.87
2019-02-19T01:47:00.973Z,1008.91
2019-02-19T01:48:00.962Z,1008.88
2019-02-19T01:49:00.951Z,1008.89
2019-02-19T01:50:00.939Z,1008.86
2019-02-19T01:51:00.932Z,1008.87
2019-02-19T01:52:00.917Z,1008.87
2019-02-19T01:53:00.909Z,1008.88
2019-02-19T01:54:00.893Z,1008.90
2019-02-19T01:55:00.886Z,1008.86
2019-02-19T01:56:00.873Z,1008.86
2019-02-19T01:57:00.861Z,1008.81
2019-02-19T01:58:00.852Z,1008.78
2019-02-19T01:59:00.838Z,1008.79
2019-02-19T02:00:00.831Z,1008.74
2019-02-19T02:01:00.818Z,1008.81
2019-02-19T02:02:00.807Z,1008.78
2019-02-19T02:03:00.794Z,1008.83
2019-02-19T02:04:00.783Z,1008.80
2019-02-19T02:05:00.772Z,1008.82
2019-02-19T02:06:00.763Z,1008.85
2019-02-19T02:07:00.750Z,1008.86
2019-02-19T02:08:00.740Z,1008.80
2019-02-19T02:09:00.728Z,1008.85
2019-02-19T02:10:00.722Z,1008.84
2019-02-19T02:11:00.706Z,1008.83
2019-02-19T02:12:00.694Z,1008.80
2019-02-19T02:13:00.684Z,1008.79
2019-02-19T02:14:00.675Z,1008.82
2019-02-19T02:15:00.662Z,1008.86
2019-02-19T02:16:00.650Z,1008.83
2019-02-19T02:17:00.643Z,1008.86
2019-02-19T02:18:00.629Z,1008.85
2019-02-19T02:19:00.622Z,1008.87
2019-02-19T02:20:00.610Z,1008.84
2019-02-19T02:21:00.593Z,1008.80
2019-02-19T02:22:00.584Z,1008.74
2019-02-19T02:23:00.578Z,1008.74
2019-02-19T02:24:00.562Z,1008.73
2019-02-19T02:25:00.555Z,1008.77
2019-02-19T02:26:00.544Z,1008.76
2019-02-19T02:27:00.529Z,1008.76
2019-02-19T02:28:00.519Z,1008.75
2019-02-19T02:29:00.508Z,1008.77
2019-02-19T02:30:00.497Z,1008.77
2019-02-19T02:31:00.483Z,1008.72
2019-02-19T02:32:00.473Z,1008.64
2019-02-19T02:33:00.463Z,1008.62
2019-02-19T02:34:00.451Z,1008.61
2019-02-19T02:35:00.440Z,1008.63
2019-02-19T02:36:00.433Z,1008.69
2019-02-19T02:37:00.417Z,1008.69
2019-02-19T02:38:00.407Z,1008.67
2019-02-19T02:39:00.398Z,1008.68
2019-02-19T02:40:00.384Z,1008.68
2019-02-19T02:41:00.374Z,1008.62
2019-02-19T02:42:00.362Z,1008.64
2019-02-19T02:43:00.356Z,1008.63
2019-02-19T02:44:00.338Z,1008.65
2019-02-19T02:45:00.518Z,1008.58
2019-02-19T02:46:00.318Z,1008.61
2019-02-19T02:47:00.307Z,1008.57
2019-02-19T02:48:00.293Z,1008.56
2019-02-19T02:49:00.286Z,1008.54
2019-02-19T02:50:00.275Z,1008.57
2019-02-19T02:51:00.280Z,1008.52
2019-02-19T02:52:00.254Z,1008.52
2019-02-19T02:53:00.239Z,1008.49
2019-02-19T02:54:00.230Z,1008.50
2019-02-19T02:55:00.319Z,1008.56
2019-02-19T02:56:00.208Z,1008.49
2019-02-19T02:57:00.195Z,1008.44
2019-02-19T02:58:00.183Z,1008.48
2019-02-19T02:59:00.174Z,1008.49
2019-02-19T03:00:00.290Z,1008.48
2019-02-19T03:01:00.155Z,1008.43
2019-02-19T03:02:00.145Z,1008.48
2019-02-19T03:03:00.129Z,1008.51
2019-02-19T03:04:00.116Z,1008.50
2019-02-19T03:05:00.197Z,1008.53
2019-02-19T03:06:00.097Z,1008.54
2019-02-19T03:07:00.085Z,1008.55
2019-02-19T03:08:00.073Z,1008.55
2019-02-19T03:09:00.062Z,1008.54
2019-02-19T03:10:00.121Z,1008.48
2019-02-19T03:11:00.043Z,1008.52
2019-02-19T03:12:00.032Z,1008.49
2019-02-19T03:13:00.016Z,1008.52
2019-02-19T03:14:00.007Z,1008.49
2019-02-19T03:14:59.993Z,1008.45
2019-02-19T03:16:02.448Z,1008.47
2019-02-19T03:16:59.972Z,1008.48
2019-02-19T03:17:59.963Z,1008.44
2019-02-19T03:18:59.957Z,1008.45
2019-02-19T03:19:59.942Z,1008.45
2019-02-19T03:20:59.930Z,1008.43
2019-02-19T03:21:59.918Z,1008.47
2019-02-19T03:23:18.246Z,1008.45
2019-02-19T03:24:31.889Z,1008.47
2019-02-19T03:25:50.017Z,1008.49
2019-02-19T03:27:31.551Z,1008.43
2019-02-19T03:28:13.399Z,1008.46
2019-02-19T03:29:13.394Z,1008.45
2019-02-19T03:30:13.389Z,1008.41
2019-02-19T03:31:13.370Z,1008.45
2019-02-19T03:32:13.362Z,1008.49
2019-02-19T03:33:13.349Z,1008.46
2019-02-19T03:34:13.335Z,1008.44
2019-02-19T03:35:13.334Z,1008.45
2019-02-19T03:36:13.313Z,1008.43
2019-02-19T03:37:13.304Z,1008.45
2019-02-19T03:38:13.293Z,1008.47
2019-02-19T03:39:13.287Z,1008.44
2019-02-19T03:40:13.270Z,1008.44
2019-02-19T03:41:13.259Z,1008.40
2019-02-19T03:42:13.249Z,1008.42
2019-02-19T03:43:13.241Z,1008.41
2019-02-19T03:44:13.226Z,1008.43
2019-02-19T03:45:13.225Z,1008.49
2019-02-19T03:46:13.205Z,1008.50
2019-02-19T03:47:13.193Z,1008.50
2019-02-19T03:48:13.184Z,1008.54
2019-02-19T03:49:13.180Z,1008.55
2019-02-19T03:50:13.160Z,1008.55
2019-02-19T03:51:13.158Z,1008.51
2019-02-19T03:52:13.136Z,1008.49
2019-02-19T03:53:13.126Z,1008.51
2019-02-19T03:54:13.115Z,1008.54
2019-02-19T03:55:13.105Z,1008.58
2019-02-19T03:56:13.095Z,1008.51
2019-02-19T03:57:13.120Z,1008.53
2019-02-19T03:58:13.075Z,1008.52
2019-02-19T03:59:13.062Z,1008.54
2019-02-19T04:00:13.051Z,1008.47
2019-02-19T04:01:13.041Z,1008.47
2019-02-19T04:02:13.031Z,1008.52
2019-02-19T04:03:13.018Z,1008.52
2019-02-19T04:04:13.006Z,1008.45
2019-02-19T04:05:12.999Z,1008.46
2019-02-19T04:06:12.984Z,1008.50
2019-02-19T04:07:12.975Z,1008.46
2019-02-19T04:08:12.961Z,1008.51
2019-02-19T04:09:12.951Z,1008.51
2019-02-19T04:10:12.942Z,1008.47
2019-02-19T04:11:12.932Z,1008.47
2019-02-19T04:12:12.917Z,1008.47
2019-02-19T04:13:12.909Z,1008.43
2019-02-19T04:14:12.900Z,1008.48
2019-02-19T04:15:12.891Z,1008.45
2019-02-19T04:16:21.140Z,1008.43
2019-02-19T04:17:13.863Z,1008.42
2019-02-19T04:18:12.855Z,1008.41
2019-02-19T04:19:12.842Z,1008.41
2019-02-19T04:20:12.829Z,1008.41
2019-02-19T04:21:12.820Z,1008.43
2019-02-19T04:22:12.813Z,1008.39
2019-02-19T04:23:12.800Z,1008.39
2019-02-19T04:24:12.791Z,1008.44
2019-02-19T04:25:12.777Z,1008.44
2019-02-19T04:26:14.103Z,1008.44
2019-02-19T04:27:12.753Z,1008.44
2019-02-19T04:28:12.743Z,1008.47
2019-02-19T04:29:12.733Z,1008.48
2019-02-19T04:30:12.719Z,1008.48
2019-02-19T04:31:12.710Z,1008.47
2019-02-19T04:32:12.698Z,1008.49
2019-02-19T04:33:12.689Z,1008.42
2019-02-19T04:34:12.678Z,1008.40
2019-02-19T04:35:12.666Z,1008.40
2019-02-19T04:36:12.655Z,1008.38
2019-02-19T04:37:12.645Z,1008.38
2019-02-19T04:38:12.633Z,1008.38
2019-02-19T04:39:12.622Z,1008.38
2019-02-19T04:40:12.617Z,1008.35
2019-02-19T04:41:12.600Z,1008.37
2019-02-19T04:42:12.589Z,1008.40
2019-02-19T04:43:12.579Z,1008.41
2019-02-19T04:44:12.570Z,1008.37
2019-02-19T04:45:12.560Z,1008.32
2019-02-19T04:46:12.546Z,1008.46
2019-02-19T04:47:12.536Z,1008.42
2019-02-19T04:48:12.527Z,1008.39
2019-02-19T04:49:12.515Z,1008.42
2019-02-19T04:50:12.504Z,1008.34
2019-02-19T04:51:12.493Z,1008.32
2019-02-19T04:52:12.482Z,1008.37
2019-02-19T04:53:12.471Z,1008.39
2019-02-19T04:54:12.460Z,1008.36
2019-02-19T04:55:12.448Z,1008.32
2019-02-19T04:56:12.435Z,1008.32
2019-02-19T04:57:12.426Z,1008.33
2019-02-19T04:58:12.417Z,1008.32
2019-02-19T04:59:12.402Z,1008.31
2019-02-19T05:00:12.393Z,1008.27
2019-02-19T05:01:12.383Z,1008.30
2019-02-19T05:02:12.371Z,1008.30
2019-02-19T05:03:12.371Z,1008.27
2019-02-19T05:04:12.347Z,1008.29
2019-02-19T05:05:12.395Z,1008.30
2019-02-19T05:06:12.325Z,1008.31
2019-02-19T05:07:12.316Z,1008.32
2019-02-19T05:08:12.303Z,1008.36
2019-02-19T05:09:12.295Z,1008.33
2019-02-19T05:10:12.284Z,1008.36
2019-02-19T05:11:12.269Z,1008.35
2019-02-19T05:12:12.265Z,1008.36
2019-02-19T05:13:12.250Z,1008.40
2019-02-19T05:14:12.238Z,1008.32
2019-02-19T05:15:12.236Z,1008.38
2019-02-19T05:16:12.217Z,1008.39
2019-02-19T05:17:12.208Z,1008.39
2019-02-19T05:18:12.194Z,1008.39
2019-02-19T05:19:12.182Z,1008.42
2019-02-19T05:20:12.177Z,1008.38
2019-02-19T05:21:12.164Z,1008.42
2019-02-19T05:22:12.149Z,1008.41
2019-02-19T05:23:12.139Z,1008.40
2019-02-19T05:24:12.128Z,1008.38
2019-02-19T05:25:12.122Z,1008.40
2019-02-19T05:26:12.107Z,1008.36
2019-02-19T05:27:12.101Z,1008.34
2019-02-19T05:28:12.082Z,1008.35
2019-02-19T05:29:12.073Z,1008.38
2019-02-19T05:30:12.063Z,1008.36
2019-02-19T05:31:31.677Z,1008.40
2019-02-19T05:32:53.599Z,1008.38
2019-02-19T05:33:53.585Z,1008.43
2019-02-19T05:34:53.576Z,1008.42
2019-02-19T05:35:53.574Z,1008.46
2019-02-19T05:36:53.552Z,1008.41
2019-02-19T05:37:53.544Z,1008.43
2019-02-19T05:38:53.529Z,1008.47
2019-02-19T05:39:53.518Z,1008.44
2019-02-19T05:40:53.509Z,1008.45
2019-02-19T05:41:53.502Z,1008.41
2019-02-19T05:42:53.491Z,1008.44
2019-02-19T05:43:53.474Z,1008.39
2019-02-19T05:44:53.463Z,1008.40
2019-02-19T05:45:53.456Z,1008.46
2019-02-19T05:46:53.446Z,1008.41
2019-02-19T05:47:53.432Z,1008.45
2019-02-19T05:48:53.433Z,1008.42
2019-02-19T05:49:53.409Z,1008.36
2019-02-19T05:50:53.399Z,1008.38
2019-02-19T05:51:53.393Z,1008.43
2019-02-19T05:52:53.383Z,1008.41
2019-02-19T05:53:53.399Z,1008.43
2019-02-19T05:54:53.355Z,1008.38
2019-02-19T05:55:53.346Z,1008.39
2019-02-19T05:56:53.332Z,1008.37
2019-02-19T05:57:53.326Z,1008.47
2019-02-19T05:58:53.317Z,1008.46
2019-02-19T05:59:53.308Z,1008.46
2019-02-19T06:00:53.290Z,1008.47
2019-02-19T06:01:53.282Z,1008.49
2019-02-19T06:02:53.267Z,1008.49
2019-02-19T06:03:53.256Z,1008.44
2019-02-19T06:04:53.247Z,1008.47
2019-02-19T06:05:53.242Z,1008.47
2019-02-19T06:06:53.223Z,1008.45
2019-02-19T06:07:53.210Z,1008.45
2019-02-19T06:08:53.210Z,1008.54
2019-02-19T06:09:53.195Z,1008.55
2019-02-19T06:10:53.182Z,1008.61
2019-02-19T06:11:53.168Z,1008.55
2019-02-19T06:12:53.161Z,1008.58
2019-02-19T06:13:53.146Z,1008.60
2019-02-19T06:14:53.135Z,1008.60
2019-02-19T06:15:53.127Z,1008.58
2019-02-19T06:16:58.497Z,1008.64
2019-02-19T06:17:54.104Z,1008.59
2019-02-19T06:18:53.092Z,1008.60
2019-02-19T06:19:53.082Z,1008.63
2019-02-19T06:20:53.069Z,1008.62
2019-02-19T06:21:53.065Z,1008.64
2019-02-19T06:22:53.048Z,1008.60
2019-02-19T06:23:53.036Z,1008.63
2019-02-19T06:24:53.034Z,1008.66
2019-02-19T06:25:53.022Z,1008.59
2019-02-19T06:26:53.014Z,1008.65
2019-02-19T06:27:52.991Z,1008.68
2019-02-19T06:28:52.982Z,1008.68
2019-02-19T06:29:52.977Z,1008.70
2019-02-19T06:30:52.970Z,1008.66
2019-02-19T06:31:52.949Z,1008.68
2019-02-19T06:32:52.935Z,1008.70
2019-02-19T06:33:52.926Z,1008.68
2019-02-19T06:34:52.914Z,1008.72
2019-02-19T06:35:52.904Z,1008.69
2019-02-19T06:36:52.893Z,1008.70
2019-02-19T06:37:52.884Z,1008.74
2019-02-19T06:38:52.871Z,1008.71
2019-02-19T06:39:52.860Z,1008.78
2019-02-19T06:40:52.854Z,1008.72
2019-02-19T06:41:52.837Z,1008.80
2019-02-19T06:42:52.830Z,1008.81
2019-02-19T06:43:52.815Z,1008.86
2019-02-19T06:44:52.805Z,1008.81
2019-02-19T06:45:52.796Z,1008.82
2019-02-19T06:46:52.784Z,1008.87
2019-02-19T06:47:52.778Z,1008.86
2019-02-19T06:48:52.764Z,1008.82
2019-02-19T06:49:52.750Z,1008.88
2019-02-19T06:50:52.741Z,1008.84
2019-02-19T06:51:52.732Z,1008.85
2019-02-19T06:52:52.718Z,1008.90
2019-02-19T06:53:52.705Z,1008.90
2019-02-19T06:54:52.700Z,1008.93
2019-02-19T06:55:52.684Z,1008.95
2019-02-19T06:56:52.674Z,1008.92
2019-02-19T06:57:52.669Z,1008.93
2019-02-19T06:58:52.650Z,1008.97
2019-02-19T06:59:52.645Z,1008.95
2019-02-19T07:00:52.633Z,1008.99
2019-02-19T07:01:52.621Z,1009.03
2019-02-19T07:02:52.608Z,1008.98
2019-02-19T07:03:52.595Z,1009.01
2019-02-19T07:04:52.588Z,1009.01
2019-02-19T07:05:52.578Z,1008.95
2019-02-19T07:06:52.563Z,1008.99
2019-02-19T07:07:52.556Z,1008.97
2019-02-19T07:08:52.542Z,1008.97
2019-02-19T07:09:52.531Z,1008.94
2019-02-19T07:10:52.523Z,1009.00
2019-02-19T07:11:52.509Z,1009.04
2019-02-19T07:12:52.497Z,1009.03
2019-02-19T07:13:52.490Z,1009.02
2019-02-19T07:14:52.480Z,1009.05
2019-02-19T07:15:52.463Z,1009.06
2019-02-19T07:16:52.452Z,1009.08
2019-02-19T07:17:52.447Z,1009.08
2019-02-19T07:18:52.433Z,1009.09
2019-02-19T07:19:52.420Z,1009.09
2019-02-19T07:20:52.412Z,1009.09
2019-02-19T07:21:52.397Z,1009.11
2019-02-19T07:22:52.387Z,1009.07
2019-02-19T07:23:52.376Z,1009.03
2019-02-19T07:24:52.365Z,1009.02
2019-02-19T07:25:52.355Z,1009.07
2019-02-19T07:26:52.343Z,1009.07
2019-02-19T07:27:52.338Z,1009.04
2019-02-19T07:28:52.323Z,1009.08
2019-02-19T07:29:52.314Z,1009.02
2019-02-19T07:30:52.300Z,1009.06
2019-02-19T07:31:52.290Z,1009.05
2019-02-19T07:32:52.284Z,1009.07
2019-02-19T07:33:52.269Z,1009.05
2019-02-19T07:34:52.257Z,1009.09
2019-02-19T07:35:52.251Z,1009.04
2019-02-19T07:36:52.236Z,1009.09
2019-02-19T07:37:52.224Z,1009.06
2019-02-19T07:38:52.532Z,1009.04
2019-02-19T07:39:52.200Z,1009.07
2019-02-19T07:40:52.189Z,1009.04
2019-02-19T07:41:52.177Z,1009.06
2019-02-19T07:42:52.167Z,1009.12
2019-02-19T07:43:52.157Z,1009.05
2019-02-19T07:44:52.145Z,1009.05
2019-02-19T07:45:52.393Z,1009.08
2019-02-19T07:46:52.124Z,1009.13
2019-02-19T07:47:52.120Z,1009.06
2019-02-19T07:48:52.101Z,1009.15
2019-02-19T07:49:52.089Z,1009.12
2019-02-19T07:50:52.077Z,1009.17
2019-02-19T07:51:52.069Z,1009.17
2019-02-19T07:52:52.056Z,1009.19
2019-02-19T07:53:52.045Z,1009.17
2019-02-19T07:54:52.034Z,1009.21
2019-02-19T07:55:52.024Z,1009.19
2019-02-19T07:56:52.014Z,1009.21
2019-02-19T07:57:52.000Z,1009.19
2019-02-19T07:58:51.991Z,1009.22
2019-02-19T07:59:51.978Z,1009.20
2019-02-19T08:00:51.970Z,1009.19
2019-02-19T08:01:51.961Z,1009.21
2019-02-19T08:02:51.945Z,1009.23
2019-02-19T08:03:51.937Z,1009.22
2019-02-19T08:04:51.925Z,1009.25
2019-02-19T08:05:51.913Z,1009.29
2019-02-19T08:06:51.903Z,1009.24
2019-02-19T08:07:51.892Z,1009.26
2019-02-19T08:08:51.879Z,1009.28
2019-02-19T08:09:51.868Z,1009.26
2019-02-19T08:10:51.858Z,1009.30
2019-02-19T08:11:51.846Z,1009.29
2019-02-19T08:12:51.835Z,1009.28
2019-02-19T08:13:51.825Z,1009.26
2019-02-19T08:14:51.814Z,1009.30
2019-02-19T08:15:51.802Z,1009.33
2019-02-19T08:16:51.792Z,1009.34
2019-02-19T08:17:51.788Z,1009.34
2019-02-19T08:18:51.769Z,1009.35
2019-02-19T08:19:51.761Z,1009.35
2019-02-19T08:20:51.748Z,1009.40
2019-02-19T08:21:51.738Z,1009.34
2019-02-19T08:22:51.729Z,1009.39
2019-02-19T08:23:51.716Z,1009.40
2019-02-19T08:24:51.703Z,1009.44
2019-02-19T08:25:51.692Z,1009.44
2019-02-19T08:26:51.679Z,1009.40
2019-02-19T08:27:51.683Z,1009.42
2019-02-19T08:28:51.658Z,1009.44
2019-02-19T08:29:51.647Z,1009.40
2019-02-19T08:30:51.636Z,1009.48
2019-02-19T08:31:51.627Z,1009.38
2019-02-19T08:32:51.656Z,1009.40
2019-02-19T08:33:51.613Z,1009.44
2019-02-19T08:34:51.592Z,1009.37
2019-02-19T08:35:51.582Z,1009.43
2019-02-19T08:36:51.569Z,1009.40
2019-02-19T08:37:51.559Z,1009.39
2019-02-19T08:38:51.548Z,1009.45
2019-02-19T08:39:51.537Z,1009.48
2019-02-19T08:40:51.533Z,1009.46
2019-02-19T08:41:51.512Z,1009.44
2019-02-19T08:42:51.502Z,1009.46
2019-02-19T08:43:51.493Z,1009.45
2019-02-19T08:44:51.483Z,1009.48
2019-02-19T08:45:51.471Z,1009.50
2019-02-19T08:46:51.460Z,1009.51
2019-02-19T08:47:51.455Z,1009.46
2019-02-19T08:48:51.439Z,1009.50
2019-02-19T08:49:51.428Z,1009.51
2019-02-19T08:50:51.414Z,1009.52
2019-02-19T08:51:56.139Z,1009.51
2019-02-19T08:52:51.399Z,1009.51
2019-02-19T08:53:51.451Z,1009.57
2019-02-19T08:54:51.373Z,1009.61
2019-02-19T08:55:51.360Z,1009.54
2019-02-19T08:56:51.351Z,1009.56
2019-02-19T08:57:51.337Z,1009.61
2019-02-19T08:58:51.328Z,1009.58
2019-02-19T08:59:51.321Z,1009.60
2019-02-19T09:00:51.311Z,1009.65
2019-02-19T09:01:51.295Z,1009.58
2019-02-19T09:02:51.288Z,1009.63
2019-02-19T09:03:51.272Z,1009.61
2019-02-19T09:04:51.261Z,1009.66
2019-02-19T09:05:51.252Z,1009.65
2019-02-19T09:06:51.241Z,1009.65
2019-02-19T09:07:51.228Z,1009.65
2019-02-19T09:08:51.217Z,1009.63
2019-02-19T09:09:51.206Z,1009.64
2019-02-19T09:10:51.196Z,1009.69
2019-02-19T09:11:51.184Z,1009.66
2019-02-19T09:12:51.174Z,1009.69
2019-02-19T09:13:51.164Z,1009.64
2019-02-19T09:14:51.151Z,1009.74
2019-02-19T09:15:51.141Z,1009.73
2019-02-19T09:16:51.131Z,1009.74
2019-02-19T09:17:52.193Z,1009.75
2019-02-19T09:18:51.193Z,1009.76
2019-02-19T09:19:51.095Z,1009.75
2019-02-19T09:20:51.090Z,1009.74
2019-02-19T09:21:51.074Z,1009.74
2019-02-19T09:22:51.068Z,1009.71
2019-02-19T09:23:51.052Z,1009.71
2019-02-19T09:24:51.041Z,1009.70
2019-02-19T09:25:51.032Z,1009.77
2019-02-19T09:26:51.020Z,1009.77
2019-02-19T09:27:51.011Z,1009.76
2019-02-19T09:28:50.999Z,1009.77
2019-02-19T09:29:50.989Z,1009.72
2019-02-19T09:30:50.978Z,1009.73
2019-02-19T09:31:50.970Z,1009.77
2019-02-19T09:32:50.954Z,1009.80
2019-02-19T09:33:50.954Z,1009.77
2019-02-19T09:34:52.660Z,1009.76
2019-02-19T09:35:50.922Z,1009.78
2019-02-19T09:36:50.908Z,1009.81
2019-02-19T09:37:50.906Z,1009.81
2019-02-19T09:38:50.889Z,1009.81
2019-02-19T09:39:50.881Z,1009.82
2019-02-19T09:40:50.865Z,1009.85
2019-02-19T09:41:50.852Z,1009.81
2019-02-19T09:42:50.842Z,1009.84
2019-02-19T09:43:50.832Z,1009.85
2019-02-19T09:45:10.455Z,1009.84
2019-02-19T09:46:50.498Z,1009.82
2019-02-19T09:49:17.481Z,1009.94
2019-02-19T09:49:59.292Z,1009.88
2019-02-19T09:51:41.197Z,1009.91
2019-02-19T09:52:40.825Z,1009.89
2019-02-19T09:53:40.813Z,1009.87
2019-02-19T09:54:40.793Z,1009.91
2019-02-19T09:55:40.785Z,1009.91
2019-02-19T09:56:40.773Z,1009.91
2019-02-19T09:57:40.805Z,1009.97
2019-02-19T09:58:40.753Z,1009.88
2019-02-19T09:59:40.738Z,1009.99
2019-02-19T10:00:40.730Z,1009.94
2019-02-19T10:01:40.725Z,1010.00
2019-02-19T10:02:40.711Z,1010.00
2019-02-19T10:03:40.696Z,1010.00
2019-02-19T10:04:40.689Z,1010.00
2019-02-19T10:05:40.673Z,1009.97
2019-02-19T10:06:40.661Z,1009.98
2019-02-19T10:07:40.651Z,1009.97
2019-02-19T10:08:40.641Z,1009.96
2019-02-19T10:09:40.628Z,1009.95
2019-02-19T10:10:40.619Z,1009.96
2019-02-19T10:11:40.607Z,1010.02
2019-02-19T10:12:40.596Z,1009.94
2019-02-19T10:13:40.586Z,1009.93
2019-02-19T10:14:40.572Z,1010.02
2019-02-19T10:15:40.564Z,1010.05
2019-02-19T10:16:41.846Z,1010.11
2019-02-19T10:17:40.539Z,1010.12
2019-02-19T10:18:40.531Z,1010.08
2019-02-19T10:19:40.518Z,1010.12
2019-02-19T10:20:40.514Z,1010.03
2019-02-19T10:21:40.500Z,1010.13
2019-02-19T10:22:40.484Z,1010.16
2019-02-19T10:23:40.483Z,1010.18
2019-02-19T10:24:40.463Z,1010.17
2019-02-19T10:25:40.452Z,1010.20
2019-02-19T10:26:40.791Z,1010.23
2019-02-19T10:27:40.429Z,1010.15
2019-02-19T10:28:40.420Z,1010.12
2019-02-19T10:29:40.408Z,1010.20
2019-02-19T10:30:40.398Z,1010.17
2019-02-19T10:31:40.387Z,1010.12
2019-02-19T10:32:40.375Z,1010.15
2019-02-19T10:33:40.363Z,1010.14
2019-02-19T10:34:40.356Z,1010.13
2019-02-19T10:35:40.342Z,1010.14
2019-02-19T10:36:40.337Z,1010.17
2019-02-19T10:37:40.322Z,1010.19
2019-02-19T10:38:40.317Z,1010.18
2019-02-19T10:39:40.305Z,1010.22
2019-02-19T10:40:40.289Z,1010.23
2019-02-19T10:41:40.280Z,1010.22
2019-02-19T10:42:40.264Z,1010.29
2019-02-19T10:43:40.256Z,1010.26
2019-02-19T10:44:40.245Z,1010.24
2019-02-19T10:45:40.233Z,1010.22
2019-02-19T10:46:40.222Z,1010.21
2019-02-19T10:47:40.211Z,1010.24
2019-02-19T10:48:40.200Z,1010.25
2019-02-19T10:49:40.191Z,1010.25
2019-02-19T10:50:40.178Z,1010.21
2019-02-19T10:51:40.170Z,1010.24
2019-02-19T10:52:40.156Z,1010.21
2019-02-19T10:53:40.143Z,1010.24
2019-02-19T10:54:40.132Z,1010.21
2019-02-19T10:55:40.123Z,1010.20
2019-02-19T10:56:40.114Z,1010.20
2019-02-19T10:57:40.100Z,1010.30
2019-02-19T10:58:40.092Z,1010.18
2019-02-19T10:59:40.078Z,1010.22
2019-02-19T11:00:40.075Z,1010.19
2019-02-19T11:01:40.055Z,1010.15
2019-02-19T11:02:40.049Z,1010.14
2019-02-19T11:03:40.038Z,1010.17
2019-02-19T11:04:40.093Z,1010.15
2019-02-19T11:05:40.019Z,1010.20
2019-02-19T11:06:40.025Z,1010.18
2019-02-19T11:07:40.010Z,1010.17
2019-02-19T11:08:39.979Z,1010.18
2019-02-19T11:09:39.994Z,1010.25
2019-02-19T11:10:39.963Z,1010.20
2019-02-19T11:11:39.947Z,1010.26
2019-02-19T11:12:39.935Z,1010.27
2019-02-19T11:13:39.925Z,1010.25
2019-02-19T11:14:39.919Z,1010.29
2019-02-19T11:15:39.902Z,1010.24
2019-02-19T11:16:39.895Z,1010.20
2019-02-19T11:17:39.881Z,1010.28
2019-02-19T11:18:39.872Z,1010.24
2019-02-19T11:19:39.864Z,1010.32
2019-02-19T11:20:39.853Z,1010.29
2019-02-19T11:21:39.835Z,1010.26
2019-02-19T11:22:39.829Z,1010.25
2019-02-19T11:23:39.830Z,1010.19
2019-02-19T11:24:39.804Z,1010.16
2019-02-19T11:25:39.799Z,1010.17
2019-02-19T11:26:39.782Z,1010.14
2019-02-19T11:27:39.770Z,1010.21
2019-02-19T11:28:41.093Z,1010.16
2019-02-19T11:29:39.763Z,1010.12
2019-02-19T11:30:39.736Z,1010.16
2019-02-19T11:31:39.725Z,1010.11
2019-02-19T11:32:39.718Z,1010.08
2019-02-19T11:33:39.703Z,1010.15
2019-02-19T11:34:39.694Z,1010.17
2019-02-19T11:35:39.677Z,1010.09
2019-02-19T11:36:39.668Z,1010.09
2019-02-19T11:37:39.661Z,1010.07
2019-02-19T11:38:39.644Z,1010.07
2019-02-19T11:39:39.634Z,1010.10
2019-02-19T11:40:39.624Z,1010.03
2019-02-19T11:41:39.613Z,1010.02
2019-02-19T11:42:39.599Z,1010.07
2019-02-19T11:43:39.590Z,1010.06
2019-02-19T11:44:39.577Z,1010.02
2019-02-19T11:45:39.586Z,1010.05
2019-02-19T11:46:39.560Z,1010.06
2019-02-19T11:47:39.543Z,1010.06
2019-02-19T11:48:39.534Z,1010.09
2019-02-19T11:49:39.522Z,1010.05
2019-02-19T11:50:39.513Z,1010.12
2019-02-19T11:51:39.502Z,1010.09
2019-02-19T11:52:39.488Z,1010.04
2019-02-19T11:53:39.480Z,1010.08
2019-02-19T11:54:39.487Z,1010.06
2019-02-19T11:55:39.457Z,1010.08
2019-02-19T11:56:57.579Z,1010.11
2019-02-19T11:58:20.984Z,1010.07
2019-02-19T11:59:20.970Z,1010.07
2019-02-19T12:00:20.962Z,1010.07
2019-02-19T12:01:20.948Z,1010.12
2019-02-19T12:02:20.934Z,1010.06
2019-02-19T12:03:20.924Z,1010.02
2019-02-19T12:04:20.917Z,1010.03
2019-02-19T12:05:20.929Z,1010.06
2019-02-19T12:06:20.893Z,1010.00
2019-02-19T12:07:20.881Z,1010.01
2019-02-19T12:08:20.872Z,1010.11
2019-02-19T12:09:20.858Z,1010.03
2019-02-19T12:10:20.846Z,1010.00
2019-02-19T12:11:20.833Z,1010.05